メインページ
METAR-TAF:

METAR-TAF

空港 :

ザグレブ, クロアチア

ザグレブ国際空港

緯度: 45-44N, 経度: 016-04E, 海抜: 106m

現時点の気象観測

当レポートは34分前の14:00(UTC)に作成
東/北東の風 6kt、北/北東から東/南東の間で変化する
気温 8°C
湿度 61%
気圧 1007 hPa
視程10km以上
高度2500ftの雲はほとんどない

METAR: LDZA 211400Z 06006KT 030V110 9999 FEW025 08/01 Q1007 NOSIG

時間: 15:34 (14:34 UTC)

予報

当レポートは3時間9分前の11:25(UTC)に作成
予報は21日の 12時(UTC)から 22日の 12時(UTC)まで有効
西の風 4kt
視程: 7000m
高度600ftの雲はほとんどない
21日の 12時(UTC)から 21日の 14時(UTC)まで徐々に
北/北東の風 8kt
21日の 21時(UTC)から 21日の 23時(UTC)まで徐々に
変向風 2kt
確率 30% :
22日の 03時(UTC)から 22日の 08時(UTC)まで一時的に
視程: 1500m
散在霧
22日の 08時(UTC)から 22日の 10時(UTC)まで徐々に
南西の風 6kt

TAF: LDZA 211125Z 2112/2212 27004KT 7000 FEW006 TX05/2113Z TNM04/2205Z BECMG 2112/2114 03008KT BECMG 2121/2123 VRB02KT PROB30 TEMPO 2203/2208 1500 BCFG BECMG 2208/2210 23006KT

4,000以上の空港の気象観測と天気予報(METAR報とTAF報)

利用可能な観測所は地図上に黄色い丸と赤い丸で示す。

丸の上にカーソルを重ねると観測所名を参照できる。

次にクリックすると気象観測と天気予報を参照できる。

マップの切り替え:黒色「×」印の緑ボタンをクリックして拡大、「-」印の緑ボタンをクリックして縮小、緑色の三角印をクリックして隣りの地図に切り替え


METAR-TAF: